Time;durP1;ratioP1;P1;durP2;ratioP2;P2;SDS_P1;SDS_P2;PMS_P1;PMS_P2;Temp;Humidity;BMP_temperature;BMP_pressure;BME280_temperature;BME280_humidity;BME280_pressure;Samples;Min_cycle;Max_cycle;Signal;HPM_P1;HPM_P2
2022/01/30 00:01:35;;;;;;;7.60;3.80;;;;;;;7.84;40.09;97868.28;5110853;28;20047;-65
2022/01/30 00:04:00;;;;;;;5.43;3.17;;;;;;;7.84;40.22;97860.34;5109503;28;20047;-65
2022/01/30 00:06:26;;;;;;;7.60;3.73;;;;;;;7.89;39.95;97857.97;5110984;28;20088;-65
2022/01/30 00:08:52;;;;;;;7.23;3.77;;;;;;;7.90;40.29;97860.41;5110930;28;20058;-65
2022/01/30 00:11:22;;;;;;;9.90;5.00;;;;;;;7.78;40.21;97851.31;5111382;28;20063;-65
2022/01/30 00:13:48;;;;;;;6.75;3.63;;;;;;;7.74;40.30;97858.00;5110798;28;20129;-65
2022/01/30 00:16:17;;;;;;;11.67;6.27;;;;;;;7.80;40.41;97846.69;5111961;28;20071;-64
2022/01/30 00:23:43;;;;;;;6.07;3.47;;;;;;;7.73;40.20;97843.16;5111525;28;20046;-64
2022/01/30 00:26:10;;;;;;;8.27;4.07;;;;;;;7.65;40.14;97827.41;5094361;28;20032;-64
2022/01/30 00:28:36;;;;;;;5.30;3.73;;;;;;;7.71;40.20;97807.34;5111550;28;20104;-63
2022/01/30 00:31:01;;;;;;;4.27;2.57;;;;;;;7.78;40.21;97813.53;5093372;28;20032;-64
2022/01/30 00:33:27;;;;;;;7.80;4.07;;;;;;;7.78;40.22;97818.81;5110135;28;20039;-64
2022/01/30 00:35:53;;;;;;;4.80;2.93;;;;;;;7.81;40.01;97818.44;5111444;28;20130;-64
2022/01/30 00:38:21;;;;;;;4.37;2.03;;;;;;;7.55;40.16;97760.81;5111656;28;20039;-65
2022/01/30 00:40:48;;;;;;;5.00;3.23;;;;;;;8.04;39.92;97796.13;5111659;28;20035;-64
2022/01/30 00:43:14;;;;;;;3.37;2.33;;;;;;;8.04;40.26;97797.97;5111288;28;20036;-65
2022/01/30 00:45:40;;;;;;;4.73;3.10;;;;;;;7.92;40.46;97797.63;5110153;28;20044;-64
2022/01/30 00:48:06;;;;;;;5.17;3.10;;;;;;;7.70;40.05;97766.06;5092598;28;20058;-64
2022/01/30 00:50:32;;;;;;;4.17;1.90;;;;;;;7.99;40.67;97793.25;5109947;28;20499;-64
2022/01/30 00:52:59;;;;;;;7.60;3.63;;;;;;;7.97;40.24;97787.34;5109908;28;20134;-63
2022/01/30 00:55:26;;;;;;;4.73;2.80;;;;;;;8.12;40.38;97782.81;5111307;28;20046;-65
2022/01/30 00:57:53;;;;;;;5.50;3.43;;;;;;;7.98;40.36;97783.66;5111167;28;20066;-65
2022/01/30 01:00:19;;;;;;;6.33;3.60;;;;;;;7.86;40.28;97769.31;5110231;28;20036;-64
2022/01/30 01:02:45;;;;;;;5.17;2.97;;;;;;;7.89;40.42;97762.81;5109843;28;20055;-64
2022/01/30 01:05:11;;;;;;;6.43;3.67;;;;;;;7.77;40.15;97757.22;5109972;28;20130;-64
2022/01/30 01:07:41;;;;;;;2.80;2.10;;;;;;;7.93;40.30;97762.25;5111113;28;20158;-63
2022/01/30 01:23:25;;;;;;;9.30;3.47;;;;;;;6.80;40.50;97699.50;5109875;28;20039;-64
2022/01/30 01:25:51;;;;;;;2.33;1.77;;;;;;;7.12;40.58;97735.25;5109914;28;20181;-68
2022/01/30 01:28:17;;;;;;;3.67;1.73;;;;;;;7.02;40.63;97726.81;5111008;28;20050;-64
2022/01/30 01:30:43;;;;;;;5.23;2.60;;;;;;;6.79;41.01;97724.25;5092800;28;20119;-63
2022/01/30 01:33:09;;;;;;;6.13;3.20;;;;;;;6.67;40.81;97730.16;5092660;28;20062;-64
2022/01/30 01:35:35;;;;;;;8.37;2.83;;;;;;;6.61;40.63;97729.03;5110721;28;20502;-63
2022/01/30 01:38:03;;;;;;;5.27;2.10;;;;;;;6.58;40.93;97724.13;5110669;28;20051;-63
2022/01/30 01:40:29;;;;;;;3.13;2.23;;;;;;;6.47;40.84;97727.19;5092722;28;20046;-64
2022/01/30 01:42:56;;;;;;;7.00;3.47;;;;;;;6.32;41.19;97720.25;5092500;28;20044;-64
2022/01/30 01:45:24;;;;;;;7.63;3.63;;;;;;;6.14;41.00;97719.72;5109682;28;20381;-64
2022/01/30 01:47:50;;;;;;;6.10;3.23;;;;;;;6.07;41.20;97724.09;5110958;28;20057;-63
2022/01/30 01:50:38;;;;;;;3.93;2.67;;;;;;;5.98;41.09;97725.94;5110763;28;20105;-63
2022/01/30 01:53:02;;;;;;;9.63;3.90;;;;;;;5.92;41.24;97707.41;5109236;28;20504;-64
2022/01/30 01:55:28;;;;;;;6.63;2.77;;;;;;;5.93;41.14;97701.97;5092756;28;20101;-64
2022/01/30 01:57:53;;;;;;;6.63;2.83;;;;;;;5.96;40.94;97706.88;5109663;28;20035;-63
2022/01/30 02:00:38;;;;;;;7.03;3.60;;;;;;;5.93;41.39;97693.22;5111114;28;20503;-63
2022/01/30 02:03:05;;;;;;;5.17;2.07;;;;;;;6.07;41.22;97688.03;5096253;28;20089;-69
2022/01/30 02:05:33;;;;;;;7.70;2.63;;;;;;;6.01;41.25;97683.44;5096220;28;20043;-63
2022/01/30 02:10:55;;;;;;;5.67;3.00;;;;;;;5.78;41.11;97687.06;5114409;28;20522;-63
2022/01/30 02:24:57;;;;;;;5.37;2.30;;;;;;;5.88;41.29;97682.38;5112266;28;20044;-65
2022/01/30 02:27:26;;;;;;;4.77;3.07;;;;;;;5.68;41.35;97660.94;5112620;28;20039;-65
2022/01/30 02:29:52;;;;;;;5.13;2.77;;;;;;;5.62;41.63;97640.59;5095973;28;20520;-64
2022/01/30 02:32:18;;;;;;;4.03;2.23;;;;;;;5.66;41.22;97648.97;5112456;28;20130;-66
2022/01/30 02:34:44;;;;;;;5.50;3.10;;;;;;;5.68;41.35;97646.94;5095438;28;20039;-64
2022/01/30 02:37:13;;;;;;;5.07;2.57;;;;;;;5.41;41.46;97606.19;5112620;28;20088;-64
2022/01/30 02:39:38;;;;;;;4.47;2.97;;;;;;;5.44;41.83;97640.06;5113482;28;20039;-64
2022/01/30 02:42:05;;;;;;;2.60;1.97;;;;;;;5.51;41.51;97640.16;5113399;28;20132;-64
2022/01/30 02:44:40;;;;;;;3.77;2.47;;;;;;;5.38;41.68;97643.41;5112321;28;20043;-64
2022/01/30 02:47:21;;;;;;;3.33;2.30;;;;;;;5.66;41.59;97635.81;5112185;28;20586;-66
2022/01/30 02:52:32;;;;;;;4.03;2.57;;;;;;;5.29;41.84;97623.34;5112094;28;20063;-64
2022/01/30 02:54:58;;;;;;;4.17;2.37;;;;;;;5.23;41.84;97632.78;5112930;28;20079;-65
2022/01/30 02:57:24;;;;;;;2.50;2.07;;;;;;;5.13;41.87;97629.56;5112013;28;20599;-64
2022/01/30 02:59:50;;;;;;;2.40;1.70;;;;;;;5.11;41.86;97617.53;5094827;28;20043;-65
2022/01/30 03:02:17;;;;;;;4.27;2.50;;;;;;;5.40;41.45;97601.09;5111605;28;20134;-63
2022/01/30 03:04:43;;;;;;;2.37;2.17;;;;;;;5.30;41.82;97624.19;5112698;28;20058;-64
2022/01/30 03:07:08;;;;;;;2.60;2.13;;;;;;;5.19;41.69;97617.50;5112768;28;20043;-64
2022/01/30 03:09:39;;;;;;;2.10;1.90;;;;;;;5.17;41.79;97608.97;5078231;28;20032;-63
2022/01/30 03:12:06;;;;;;;2.87;2.30;;;;;;;5.31;41.80;97613.47;5111967;28;20224;-64
2022/01/30 03:14:32;;;;;;;2.83;2.13;;;;;;;5.10;41.62;97610.66;5111360;28;20047;-63
2022/01/30 03:16:58;;;;;;;1.47;1.37;;;;;;;5.02;41.74;97605.44;5111072;28;20433;-63
2022/01/30 03:19:24;;;;;;;1.57;1.47;;;;;;;5.04;41.77;97595.56;5111310;28;20083;-63
2022/01/30 03:21:50;;;;;;;3.97;2.40;;;;;;;5.35;41.84;97588.44;5110969;28;20039;-64
2022/01/30 03:24:16;;;;;;;2.77;2.23;;;;;;;5.40;42.50;97580.84;5111091;28;20039;-63
2022/01/30 03:26:43;;;;;;;2.30;1.70;;;;;;;5.59;41.87;97588.28;5093927;28;20352;-63
2022/01/30 03:29:21;;;;;;;1.80;1.40;;;;;;;5.40;41.44;97591.38;5094095;28;20052;-65
2022/01/30 03:31:47;;;;;;;1.67;1.17;;;;;;;5.19;41.54;97564.88;5109882;28;20092;-67
2022/01/30 03:34:13;;;;;;;1.50;1.33;;;;;;;5.35;41.45;97585.00;5108564;28;20039;-64
2022/01/30 03:36:49;;;;;;;1.70;1.30;;;;;;;5.57;41.43;97565.75;5110741;28;20047;-66
2022/01/30 03:39:15;;;;;;;1.40;1.30;;;;;;;5.16;41.47;97536.28;5110722;28;20149;-64
2022/01/30 03:41:41;;;;;;;1.70;1.60;;;;;;;5.27;41.39;97583.25;5110603;28;20047;-62
2022/01/30 03:44:10;;;;;;;1.33;1.23;;;;;;;5.16;41.52;97571.31;5110566;28;20117;-63
2022/01/30 03:46:37;;;;;;;1.40;1.30;;;;;;;5.06;41.66;97578.59;5093386;28;20046;-64
2022/01/30 03:49:03;;;;;;;1.17;1.07;;;;;;;5.01;41.76;97588.03;5110246;28;20047;-64
2022/01/30 03:51:30;;;;;;;3.33;2.43;;;;;;;5.12;41.91;97558.66;5111762;28;20067;-62
2022/01/30 03:54:06;;;;;;;3.37;2.50;;;;;;;5.26;41.57;97563.19;5110307;28;20079;-63
2022/01/30 03:56:31;;;;;;;3.20;1.83;;;;;;;5.24;41.76;97547.56;5110260;28;20489;-70
2022/01/30 03:58:57;;;;;;;1.83;1.53;;;;;;;5.28;41.82;97545.41;5110306;28;20047;-65
2022/01/30 04:01:23;;;;;;;1.73;1.53;;;;;;;5.29;41.68;97546.25;5076272;28;20461;-64
2022/01/30 04:03:49;;;;;;;1.40;1.10;;;;;;;5.16;41.69;97544.19;5111324;28;20031;-65
2022/01/30 04:06:15;;;;;;;1.60;1.33;;;;;;;5.12;41.75;97538.44;5111496;28;20101;-63
2022/01/30 04:08:41;;;;;;;1.33;1.20;;;;;;;5.21;41.85;97549.75;5109912;28;20074;-64
2022/01/30 04:11:36;;;;;;;0.90;0.90;;;;;;;5.10;41.84;97547.53;5092879;28;20142;-64
2022/01/30 04:14:25;;;;;;;1.13;1.10;;;;;;;5.12;41.83;97548.97;5071536;28;20196;-64
2022/01/30 04:17:09;;;;;;;2.17;1.60;;;;;;;5.26;41.65;97501.88;5110896;28;20062;-64
2022/01/30 04:19:47;;;;;;;1.65;1.55;;;;;;;5.03;41.70;97554.44;5094759;28;20040;-71
2022/01/30 04:22:43;;;;;;;1.93;1.73;;;;;;;5.23;41.70;97514.38;5080043;28;20051;-64
2022/01/30 04:25:25;;;;;;;0.93;0.93;;;;;;;5.23;41.66;97526.69;5109404;28;20126;-64
2022/01/30 04:28:09;;;;;;;0.97;0.97;;;;;;;5.19;41.78;97534.16;5111167;28;20035;-62
2022/01/30 04:31:00;;;;;;;2.03;1.65;;;;;;;5.09;41.64;97530.09;5079751;28;20487;-63
2022/01/30 04:33:52;;;;;;;1.20;1.10;;;;;;;5.21;41.17;97495.28;5094478;27;20047;-64
2022/01/30 04:36:35;;;;;;;0.90;0.90;;;;;;;5.36;41.37;97524.31;5110211;28;20069;-64
2022/01/30 04:39:34;;;;;;;0.93;0.90;;;;;;;5.18;41.56;97503.53;5110010;28;20406;-63
2022/01/30 04:52:02;;;;;;;1.10;1.10;;;;;;;5.28;41.48;97511.19;5109564;28;20115;-64
2022/01/30 04:52:51;;;;;;;1.00;1.00;;;;;;;4.93;41.84;97510.00;5067676;28;20064;-64
2022/01/30 05:00:55;;;;;;;1.40;1.30;;;;;;;5.04;41.61;97496.41;5103127;28;20212;-63
2022/01/30 05:06:53;;;;;;;1.30;1.20;;;;;;;4.82;41.70;97452.53;5109953;28;20088;-64
2022/01/30 05:09:42;;;;;;;1.00;1.00;;;;;;;5.19;41.71;97483.31;5110331;28;20050;-64
2022/01/30 05:12:41;;;;;;;1.30;1.20;;;;;;;4.99;41.87;97463.75;5103589;28;20051;-62
2022/01/30 05:15:28;;;;;;;1.30;1.20;;;;;;;5.10;41.82;97479.91;5109652;28;20080;-63
2022/01/30 05:18:29;;;;;;;1.10;1.07;;;;;;;5.19;41.63;97471.00;5096383;28;20073;-63
2022/01/30 05:21:11;;;;;;;1.50;1.33;;;;;;;5.00;41.73;97465.38;5094297;28;20441;-64
2022/01/30 05:23:47;;;;;;;1.70;1.47;;;;;;;5.04;41.68;97467.47;5109358;28;20589;-63
2022/01/30 05:26:25;;;;;;;0.90;0.90;;;;;;;5.26;41.83;97491.34;5108894;28;20040;-63
2022/01/30 05:29:14;;;;;;;1.23;1.13;;;;;;;5.00;41.92;97478.53;5103160;28;20052;-63
2022/01/30 05:32:19;;;;;;;0.70;0.70;;;;;;;4.90;42.02;97485.84;5092681;28;20043;-63
2022/01/30 05:34:51;;;;;;;0.87;0.87;;;;;;;4.85;41.89;97467.13;5110636;28;20465;-67
2022/01/30 05:37:48;;;;;;;1.07;1.07;;;;;;;4.86;42.16;97463.50;5095766;28;20043;-63
2022/01/30 05:40:35;;;;;;;0.87;0.87;;;;;;;5.09;42.13;97465.16;5113420;28;20039;-63
2022/01/30 05:43:22;;;;;;;1.27;1.17;;;;;;;4.93;42.01;97456.56;5082106;28;20090;-63
2022/01/30 05:45:59;;;;;;;0.90;0.90;;;;;;;5.03;42.21;97454.50;5112795;28;20047;-70
2022/01/30 05:48:43;;;;;;;1.10;1.10;;;;;;;4.80;42.23;97448.44;5099305;28;20049;-63
2022/01/30 05:51:23;;;;;;;1.03;1.03;;;;;;;4.63;42.10;97465.28;5095499;28;20126;-63
2022/01/30 05:53:51;;;;;;;0.80;0.80;;;;;;;4.67;42.31;97472.69;5095204;28;20048;-69
2022/01/30 05:56:20;;;;;;;0.83;0.83;;;;;;;4.57;42.48;97442.34;5112502;28;20078;-65
2022/01/30 05:58:48;;;;;;;0.80;0.80;;;;;;;4.75;42.22;97446.31;5095826;28;20130;-66
2022/01/30 06:01:29;;;;;;;;;;;;;;;5.52;41.24;97447.81;5114334;28;20069;-64
2022/01/30 06:04:06;;;;;;;0.70;0.70;;;;;;;4.84;41.98;97461.03;5112795;28;19945;-64
2022/01/30 06:06:32;;;;;;;1.10;1.10;;;;;;;4.77;41.94;97465.38;5112573;28;20108;-64
2022/01/30 06:09:18;;;;;;;1.33;1.23;;;;;;;4.62;42.09;97392.69;5112665;28;20074;-68
2022/01/30 06:11:50;;;;;;;1.67;1.20;;;;;;;5.12;42.03;97433.22;5112311;28;20473;-64
2022/01/30 06:14:21;;;;;;;1.50;1.40;;;;;;;5.39;41.92;97445.00;5112236;28;20059;-64
2022/01/30 06:16:49;;;;;;;;;;;;;;;5.53;41.19;97449.47;5112546;28;20047;-66
2022/01/30 06:19:34;;;;;;;0.67;0.67;;;;;;;4.75;42.18;97469.19;5098001;28;19948;-65
2022/01/30 06:22:20;;;;;;;0.70;0.70;;;;;;;4.72;41.98;97443.25;5096429;28;20043;-64
2022/01/30 06:25:05;;;;;;;0.97;0.97;;;;;;;4.94;42.02;97435.34;5113363;28;20068;-62
2022/01/30 06:27:54;;;;;;;0.97;0.97;;;;;;;4.80;42.36;97437.91;5106129;28;20055;-66
2022/01/30 06:30:38;;;;;;;0.90;0.90;;;;;;;4.73;42.17;97432.56;5112368;28;20039;-66
2022/01/30 06:33:22;;;;;;;0.93;0.93;;;;;;;4.76;42.25;97434.00;5111885;28;20153;-66
2022/01/30 06:36:08;;;;;;;0.90;0.90;;;;;;;4.77;42.13;97441.72;5090347;28;20067;-66
2022/01/30 06:38:42;;;;;;;0.90;0.90;;;;;;;4.77;42.28;97433.84;5078943;28;20039;-69
2022/01/30 06:41:26;;;;;;;0.93;0.93;;;;;;;4.73;42.10;97415.97;5083039;28;20142;-67
2022/01/30 06:44:16;;;;;;;0.77;0.77;;;;;;;5.08;42.16;97434.59;5111822;28;20043;-66
2022/01/30 06:47:01;;;;;;;0.80;0.80;;;;;;;4.90;42.10;97423.56;5096276;28;20039;-67
2022/01/30 06:49:38;;;;;;;0.67;0.67;;;;;;;4.88;42.30;97436.06;5097154;28;20043;-67
2022/01/30 06:52:11;;;;;;;0.97;0.97;;;;;;;4.99;42.26;97419.03;5112186;28;20040;-67
2022/01/30 06:54:55;;;;;;;0.80;0.80;;;;;;;4.97;42.12;97444.69;5111711;28;20043;-67
2022/01/30 06:57:44;;;;;;;0.90;0.90;;;;;;;5.38;42.03;97422.31;5111816;28;20049;-66
2022/01/30 07:00:29;;;;;;;0.80;0.80;;;;;;;5.01;42.22;97427.56;5111258;28;20479;-67
2022/01/30 07:03:14;;;;;;;0.80;0.80;;;;;;;5.05;42.11;97416.53;5082911;28;20032;-67
2022/01/30 07:06:06;;;;;;;0.80;0.80;;;;;;;5.08;41.87;97417.97;5068019;28;20060;-67
2022/01/30 07:08:36;;;;;;;0.80;0.80;;;;;;;5.09;41.99;97435.38;5095412;28;20504;-71
2022/01/30 07:11:02;;;;;;;0.70;0.70;;;;;;;5.03;42.01;97438.72;5060893;28;20162;-72
2022/01/30 07:13:28;;;;;;;0.93;0.93;;;;;;;5.04;42.01;97424.59;5060989;28;20047;-72
2022/01/30 07:15:54;;;;;;;1.10;1.10;;;;;;;5.00;41.94;97410.13;5094232;28;20043;-73
2022/01/30 07:18:19;;;;;;;0.80;0.80;;;;;;;4.74;42.13;97396.56;5060963;28;20063;-73
2022/01/30 07:20:45;;;;;;;0.90;0.90;;;;;;;4.93;42.02;97427.63;5060362;28;20072;-72
2022/01/30 07:23:11;;;;;;;1.37;0.90;;;;;;;4.83;42.18;97425.25;5077511;28;20051;-74
2022/01/30 07:25:37;;;;;;;0.90;0.90;;;;;;;4.81;42.07;97423.78;5077526;28;20388;-76
2022/01/30 07:28:03;;;;;;;0.90;0.90;;;;;;;4.75;42.32;97399.00;5060667;28;20112;-77
2022/01/30 07:30:29;;;;;;;0.67;0.67;;;;;;;4.90;42.02;97415.66;5060725;28;20036;-76
2022/01/30 07:32:55;;;;;;;1.30;1.20;;;;;;;4.97;41.94;97399.97;5094562;28;20100;-73
2022/01/30 07:35:21;;;;;;;0.87;0.87;;;;;;;5.01;41.89;97427.56;5077410;28;20055;-82
2022/01/30 07:37:47;;;;;;;1.30;1.20;;;;;;;4.91;41.81;97419.09;5060980;28;20105;-78
2022/01/30 07:40:13;;;;;;;1.40;1.30;;;;;;;5.27;41.84;97388.53;5060671;28;20035;-74
2022/01/30 07:42:39;;;;;;;0.90;0.90;;;;;;;5.23;41.71;97403.03;5112118;28;20471;-76
2022/01/30 07:45:05;;;;;;;1.00;1.00;;;;;;;5.16;41.84;97408.22;5110663;28;20551;-75
2022/01/30 07:47:31;;;;;;;0.90;0.90;;;;;;;5.18;41.77;97405.41;5112212;28;20066;-73
2022/01/30 07:49:57;;;;;;;0.87;0.87;;;;;;;5.16;41.84;97410.00;5112446;28;20075;-71
2022/01/30 07:52:23;;;;;;;0.90;0.90;;;;;;;5.21;41.76;97394.53;5111637;28;20074;-78
2022/01/30 07:54:49;;;;;;;1.00;1.00;;;;;;;5.18;41.53;97411.47;5110903;28;20488;-75
2022/01/30 07:57:17;;;;;;;1.37;1.27;;;;;;;5.27;41.68;97395.59;5112214;28;20040;-72
2022/01/30 07:59:43;;;;;;;0.70;0.70;;;;;;;5.29;41.65;97401.50;5110893;28;20059;-70
2022/01/30 08:02:09;;;;;;;0.80;0.80;;;;;;;4.91;41.54;97364.69;5110674;28;20048;-76
2022/01/30 08:04:35;;;;;;;1.17;1.10;;;;;;;5.07;41.52;97380.31;5110806;28;20107;-73
2022/01/30 08:07:01;;;;;;;0.70;0.70;;;;;;;5.27;41.51;97392.97;5060402;28;20035;-77
2022/01/30 08:09:27;;;;;;;0.90;0.90;;;;;;;5.59;41.34;97374.19;5110595;28;20047;-78
2022/01/30 08:11:54;;;;;;;1.27;1.10;;;;;;;5.90;41.26;97380.13;5094266;28;20543;-77
2022/01/30 08:14:20;;;;;;;1.23;1.03;;;;;;;5.82;40.97;97383.69;5110589;28;20085;-81
2022/01/30 08:16:45;;;;;;;1.03;0.97;;;;;;;5.84;40.96;97381.69;5094892;28;20123;-71
2022/01/30 08:19:11;;;;;;;1.03;1.00;;;;;;;5.46;41.03;97352.97;5114660;28;20039;-77
2022/01/30 08:21:37;;;;;;;1.73;1.40;;;;;;;5.77;40.77;97396.53;5081982;28;20415;-77
2022/01/30 08:24:03;;;;;;;1.17;1.07;;;;;;;5.65;40.56;97398.00;5095671;28;20124;-81
2022/01/30 08:26:29;;;;;;;1.00;1.00;;;;;;;5.23;40.82;97371.44;5094162;28;20035;-80
2022/01/30 08:28:54;;;;;;;0.90;0.90;;;;;;;5.41;40.94;97415.88;5093883;28;20038;-77
2022/01/30 08:31:20;;;;;;;1.17;1.07;;;;;;;5.53;40.91;97407.34;5076813;28;20048;-74
2022/01/30 08:33:46;;;;;;;0.90;0.90;;;;;;;5.63;40.93;97386.81;5093933;28;20062;-66
2022/01/30 08:36:12;;;;;;;1.00;1.00;;;;;;;5.49;40.81;97398.16;5111458;28;20062;-79
2022/01/30 08:38:38;;;;;;;0.80;0.80;;;;;;;5.51;40.79;97390.91;5111085;28;20074;-82
2022/01/30 08:41:04;;;;;;;0.90;0.90;;;;;;;5.48;40.69;97395.72;5076514;28;20487;-79
2022/01/30 08:43:30;;;;;;;0.80;0.80;;;;;;;5.39;40.96;97396.78;5110101;28;20134;-84
2022/01/30 08:45:56;;;;;;;0.83;0.83;;;;;;;5.38;40.74;97392.53;5075998;28;20175;-65
2022/01/30 08:48:22;;;;;;;0.80;0.80;;;;;;;5.39;40.96;97381.00;5109715;28;20230;-65
2022/01/30 08:50:48;;;;;;;0.80;0.80;;;;;;;5.42;40.97;97368.31;5109659;28;20088;-69
2022/01/30 08:53:16;;;;;;;0.90;0.90;;;;;;;5.89;40.95;97374.03;5109775;28;20051;-65
2022/01/30 08:55:43;;;;;;;0.70;0.70;;;;;;;5.57;40.90;97373.56;5092743;28;20039;-64
2022/01/30 08:58:09;;;;;;;1.10;1.00;;;;;;;5.45;40.99;97359.22;5090624;28;20146;-66
2022/01/30 09:00:41;;;;;;;0.80;0.80;;;;;;;6.22;40.68;97370.00;5107688;28;20127;-66
2022/01/30 09:03:07;;;;;;;0.80;0.80;;;;;;;5.77;40.71;97380.75;5107834;28;20422;-64
2022/01/30 09:05:36;;;;;;;1.53;1.20;;;;;;;6.34;40.22;97372.94;5106778;28;20054;-66
2022/01/30 09:08:04;;;;;;;0.90;0.90;;;;;;;5.90;40.77;97377.50;5106265;28;20050;-66
2022/01/30 09:10:34;;;;;;;1.00;0.90;;;;;;;5.95;40.66;97356.69;5109287;28;20038;-68
2022/01/30 09:13:01;;;;;;;1.00;0.80;;;;;;;5.92;40.51;97363.13;5111769;28;20040;-67
2022/01/30 09:15:27;;;;;;;1.07;0.83;;;;;;;6.05;40.54;97355.41;5110860;28;20116;-65
2022/01/30 09:17:53;;;;;;;0.80;0.80;;;;;;;5.85;40.61;97351.72;5108348;28;20106;-65
2022/01/30 09:20:19;;;;;;;1.27;1.17;;;;;;;6.22;40.57;97355.97;5111729;28;20054;-68
2022/01/30 09:22:45;;;;;;;2.40;1.37;;;;;;;6.24;40.71;97340.81;5091088;28;20412;-67
2022/01/30 09:25:11;;;;;;;0.87;0.87;;;;;;;6.77;41.16;97338.50;5105751;28;20118;-76
2022/01/30 09:27:37;;;;;;;1.00;1.00;;;;;;;6.95;41.04;97337.22;5104334;28;20078;-66
2022/01/30 09:30:05;;;;;;;1.27;0.90;;;;;;;7.66;41.62;97345.59;5105527;28;20047;-69
2022/01/30 09:32:31;;;;;;;0.80;0.80;;;;;;;7.82;41.33;97342.66;5094515;28;20503;-67
2022/01/30 09:34:57;;;;;;;3.77;1.30;;;;;;;8.30;41.82;97335.53;5105680;28;20036;-65
2022/01/30 09:37:23;;;;;;;1.00;0.90;;;;;;;9.03;41.96;97292.22;5091969;28;20036;-64
2022/01/30 09:39:48;;;;;;;0.75;0.75;;;;;;;9.61;41.37;97296.63;5092858;28;20108;-73
2022/01/30 09:42:16;;;;;;;0.90;0.80;;;;;;;10.45;40.61;97299.91;5111673;28;20449;-64
2022/01/30 09:44:43;;;;;;;0.80;0.80;;;;;;;11.03;40.07;97310.09;5109582;28;20074;-71
2022/01/30 09:47:13;;;;;;;2.40;0.70;;;;;;;11.92;39.14;97291.03;5110901;28;20673;-64
2022/01/30 09:49:40;;;;;;;1.98;0.90;;;;;;;12.29;38.08;97312.03;5110007;28;20051;-71
2022/01/30 09:52:08;;;;;;;0.73;0.73;;;;;;;12.50;37.53;97310.72;5109710;28;20044;-66
2022/01/30 09:54:35;;;;;;;3.33;1.17;;;;;;;12.56;36.89;97307.16;5109411;28;20089;-65
2022/01/30 09:57:01;;;;;;;5.03;1.67;;;;;;;12.83;37.19;97303.88;5110172;28;20040;-66
2022/01/30 09:59:26;;;;;;;3.40;1.35;;;;;;;13.03;36.27;97292.91;5092364;28;20548;-65
2022/01/30 10:01:52;;;;;;;2.50;1.52;;;;;;;13.10;35.55;97310.41;5108891;28;20039;-67
2022/01/30 10:04:18;;;;;;;3.65;1.98;;;;;;;13.15;34.61;97301.72;5109616;28;20062;-66
2022/01/30 10:06:58;;;;;;;5.05;1.98;;;;;;;13.78;34.93;97307.97;5092215;28;20694;-67
2022/01/30 10:09:30;;;;;;;6.32;2.67;;;;;;;13.31;35.38;97261.91;5075513;28;20040;-67
2022/01/30 10:12:16;;;;;;;7.05;3.25;;;;;;;12.99;34.55;97299.72;5089932;28;20044;-67
2022/01/30 10:14:59;;;;;;;4.72;2.50;;;;;;;12.21;34.64;97291.03;5091969;28;20088;-65
2022/01/30 10:17:35;;;;;;;5.43;3.08;;;;;;;12.09;36.98;97281.38;5108637;28;20483;-66
2022/01/30 10:20:13;;;;;;;5.93;3.28;;;;;;;11.81;36.41;97284.59;5091568;28;20041;-67
2022/01/30 10:22:59;;;;;;;5.45;2.53;;;;;;;11.65;35.66;97282.53;5108594;28;20040;-65
2022/01/30 10:25:26;;;;;;;5.18;2.97;;;;;;;11.27;37.03;97284.56;5091880;28;20039;-65
2022/01/30 10:28:14;;;;;;;4.75;3.05;;;;;;;11.10;36.13;97280.84;5109327;28;20047;-67
2022/01/30 10:30:49;;;;;;;3.40;2.53;;;;;;;10.36;37.17;97279.97;5048460;28;20054;-66
2022/01/30 10:33:17;;;;;;;6.07;2.63;;;;;;;10.33;36.75;97270.63;5111554;28;20051;-67
2022/01/30 10:35:52;;;;;;;5.33;3.33;;;;;;;10.27;37.11;97274.91;5077978;28;20096;-67
2022/01/30 10:38:25;;;;;;;5.87;3.20;;;;;;;9.88;37.25;97261.84;5112465;28;20075;-66
2022/01/30 10:43:56;;;;;;;7.47;4.00;;;;;;;9.78;38.62;97242.09;5078564;28;20078;-66
2022/01/30 10:46:28;;;;;;;6.37;3.27;;;;;;;9.58;37.47;97266.03;5061312;28;20100;-68
2022/01/30 10:49:11;;;;;;;5.57;3.10;;;;;;;9.56;37.30;97256.69;5108768;28;20035;-67
2022/01/30 10:51:38;;;;;;;3.37;2.77;;;;;;;9.18;37.91;97261.06;5092151;28;20093;-66
2022/01/30 10:54:09;;;;;;;5.57;3.60;;;;;;;9.45;37.53;97255.50;5073611;28;20044;-66
2022/01/30 10:56:36;;;;;;;5.43;3.23;;;;;;;9.31;37.70;97261.03;5091957;28;20043;-69
2022/01/30 10:59:10;;;;;;;7.07;3.70;;;;;;;9.11;36.96;97244.38;5092505;28;20035;-66
2022/01/30 11:01:38;;;;;;;6.77;4.13;;;;;;;8.80;37.35;97254.78;5076855;28;20062;-66
2022/01/30 11:04:04;;;;;;;6.47;4.17;;;;;;;8.62;37.81;97236.06;5111031;28;20407;-66
2022/01/30 11:06:30;;;;;;;7.47;4.13;;;;;;;8.28;37.38;97198.25;5077600;28;20046;-65
2022/01/30 11:09:14;;;;;;;4.97;3.20;;;;;;;8.85;37.13;97229.34;5094335;28;20058;-65
2022/01/30 11:11:45;;;;;;;5.07;3.60;;;;;;;8.10;37.86;97205.91;5094449;28;20101;-65
2022/01/30 11:19:23;;;;;;;6.23;3.50;;;;;;;8.27;37.17;97209.81;5111524;28;20488;-67
2022/01/30 11:22:01;;;;;;;6.73;3.90;;;;;;;8.38;36.76;97209.22;5094564;28;20044;-67
2022/01/30 11:24:27;;;;;;;6.70;4.40;;;;;;;8.04;37.67;97197.97;5094389;28;20043;-65
2022/01/30 11:26:53;;;;;;;8.00;4.27;;;;;;;8.12;38.39;97226.84;5077026;28;20068;-70
2022/01/30 11:29:20;;;;;;;6.47;3.83;;;;;;;7.95;37.19;97218.47;5094083;28;20130;-65
2022/01/30 11:31:48;;;;;;;5.40;3.63;;;;;;;7.86;37.84;97151.00;5094118;28;20130;-65
2022/01/30 11:34:13;;;;;;;6.53;3.53;;;;;;;7.67;37.29;97194.00;5093376;28;20043;-65
2022/01/30 11:36:41;;;;;;;5.47;3.23;;;;;;;8.12;37.09;97229.47;5076957;28;20036;-66
2022/01/30 11:39:17;;;;;;;5.23;3.90;;;;;;;8.19;36.76;97180.09;5093791;28;20043;-65
2022/01/30 11:42:21;;;;;;;3.43;2.90;;;;;;;8.37;36.42;97196.19;5110725;28;20529;-65
2022/01/30 11:45:00;;;;;;;4.27;2.97;;;;;;;8.03;37.06;97175.19;5029151;28;20056;-65
2022/01/30 11:47:26;;;;;;;4.07;3.17;;;;;;;7.62;37.06;97198.28;5099707;28;20063;-66
2022/01/30 11:49:55;;;;;;;6.50;3.80;;;;;;;7.67;37.69;97193.22;5094062;28;20042;-66
2022/01/30 11:52:41;;;;;;;7.83;4.33;;;;;;;8.07;37.96;97192.28;5110900;28;20043;-65
2022/01/30 11:55:43;;;;;;;6.47;4.20;;;;;;;8.10;36.76;97183.97;5093623;28;20039;-65
2022/01/30 11:58:29;;;;;;;10.17;4.40;;;;;;;8.27;36.81;97185.22;5094282;28;20084;-66
2022/01/30 12:00:56;;;;;;;6.83;3.10;;;;;;;7.60;37.46;97189.72;5112087;28;20047;-74
2022/01/30 12:03:31;;;;;;;7.27;4.27;;;;;;;8.28;37.92;97173.63;5060276;28;20130;-67
2022/01/30 12:06:20;;;;;;;6.43;4.27;;;;;;;8.12;36.84;97179.25;5093528;28;20067;-66
2022/01/30 12:08:53;;;;;;;8.37;4.60;;;;;;;8.36;38.18;97176.84;5111400;28;20044;-65
2022/01/30 12:11:37;;;;;;;8.53;4.47;;;;;;;8.47;36.83;97186.03;5076748;28;20044;-65
2022/01/30 12:14:13;;;;;;;7.33;4.80;;;;;;;8.32;37.09;97166.91;5093234;28;20100;-66
2022/01/30 12:16:47;;;;;;;7.47;4.33;;;;;;;8.42;37.69;97169.97;5093670;28;20087;-65
2022/01/30 12:19:17;;;;;;;8.97;5.07;;;;;;;7.76;37.95;97070.50;5093425;28;20039;-65
2022/01/30 12:21:46;;;;;;;9.90;4.55;;;;;;;8.03;36.87;97169.91;5075926;28;20047;-65
2022/01/30 12:24:24;;;;;;;9.87;5.27;;;;;;;8.59;37.75;97166.66;5110280;28;20487;-65
2022/01/30 12:27:06;;;;;;;8.77;5.10;;;;;;;8.33;37.62;97174.63;5111578;28;20035;-65
2022/01/30 12:29:38;;;;;;;9.53;5.27;;;;;;;8.57;37.89;97168.72;5110532;28;20460;-65
2022/01/30 12:32:26;;;;;;;10.23;5.17;;;;;;;8.61;37.06;97171.75;5093195;28;20135;-66
2022/01/30 12:34:57;;;;;;;7.97;4.97;;;;;;;8.39;37.28;97173.00;5093275;28;20067;-65
2022/01/30 12:37:31;;;;;;;12.20;5.77;;;;;;;8.63;37.43;97167.09;5093337;28;20035;-66
2022/01/30 12:39:59;;;;;;;10.73;5.67;;;;;;;8.40;37.00;97185.22;5110333;28;20043;-66
2022/01/30 12:42:27;;;;;;;12.53;6.33;;;;;;;8.30;37.34;97177.69;5111511;28;20042;-66
2022/01/30 12:45:03;;;;;;;10.52;5.38;;;;;;;8.26;37.15;97142.09;5092946;28;20422;-66
2022/01/30 12:47:29;;;;;;;9.53;5.67;;;;;;;7.95;37.23;97180.69;5110295;28;20058;-66
2022/01/30 12:49:59;;;;;;;8.90;5.23;;;;;;;8.08;38.66;97180.69;5093004;28;20048;-66
2022/01/30 12:55:09;;;;;;;10.60;5.90;;;;;;;8.38;37.44;97179.31;5093424;28;20044;-66
2022/01/30 12:57:35;;;;;;;11.95;5.22;;;;;;;8.08;38.01;97165.66;5109830;28;20052;-65
2022/01/30 13:00:07;;;;;;;8.13;4.83;;;;;;;8.04;37.55;97175.00;5075878;28;20155;-66
2022/01/30 13:02:36;;;;;;;6.67;4.63;;;;;;;7.44;37.33;97158.41;5109843;28;20047;-66
2022/01/30 13:05:08;;;;;;;6.60;4.67;;;;;;;7.72;37.45;97136.13;5093510;28;20526;-65
2022/01/30 13:07:35;;;;;;;8.27;4.20;;;;;;;7.81;37.65;97171.09;5092660;28;20042;-66